Time;durP1;ratioP1;P1;durP2;ratioP2;P2;SDS_P1;SDS_P2;PMS_P1;PMS_P2;Temp;Humidity;BMP_temperature;BMP_pressure;BME280_temperature;BME280_humidity;BME280_pressure;Samples;Min_cycle;Max_cycle;Signal;HPM_P1;HPM_P2
2022/07/30 00:00:40;;;;;;;2.28;2.15;;;24.20;77.00;;;;;;4991479;28;20188;-74
2022/07/30 00:03:06;;;;;;;2.20;2.10;;;24.20;76.90;;;;;;5024741;28;20205;-74
2022/07/30 00:05:32;;;;;;;2.60;2.40;;;24.20;76.90;;;;;;5023588;28;20248;-74
2022/07/30 00:07:58;;;;;;;2.00;1.90;;;24.20;76.90;;;;;;5007841;28;20216;-74
2022/07/30 00:10:24;;;;;;;2.40;2.30;;;24.20;76.80;;;;;;5023626;28;20188;-73
2022/07/30 00:12:50;;;;;;;2.65;2.45;;;24.20;76.70;;;;;;5024331;28;20185;-74
2022/07/30 00:15:16;;;;;;;2.40;2.30;;;24.20;76.70;;;;;;5006827;28;20203;-74
2022/07/30 00:17:41;;;;;;;1.92;1.83;;;24.20;76.60;;;;;;5023244;28;20221;-74
2022/07/30 00:20:08;;;;;;;2.10;2.00;;;24.20;76.60;;;;;;5024321;28;20704;-75
2022/07/30 00:22:34;;;;;;;2.30;2.20;;;24.20;76.60;;;;;;5007584;28;20204;-74
2022/07/30 00:25:00;;;;;;;2.00;1.90;;;24.20;76.50;;;;;;5024034;28;20700;-74
2022/07/30 00:27:25;;;;;;;2.63;2.42;;;24.20;76.50;;;;;;5007152;28;20272;-75
2022/07/30 00:29:51;;;;;;;2.17;1.98;;;24.20;76.50;;;;;;5023815;28;20215;-74
2022/07/30 00:32:17;;;;;;;2.55;2.40;;;24.20;76.40;;;;;;5023100;28;20239;-75
2022/07/30 00:34:43;;;;;;;2.50;2.30;;;24.20;76.40;;;;;;5024534;28;20236;-74
2022/07/30 00:37:09;;;;;;;2.05;1.95;;;24.20;76.20;;;;;;4991551;28;20221;-75
2022/07/30 00:39:35;;;;;;;2.50;2.30;;;24.20;76.30;;;;;;5024193;28;20596;-74
2022/07/30 00:42:03;;;;;;;2.15;2.05;;;24.20;76.30;;;;;;5022811;28;20181;-75
2022/07/30 00:44:29;;;;;;;2.40;2.20;;;24.20;76.30;;;;;;5024214;28;20245;-74
2022/07/30 00:46:56;;;;;;;2.00;1.90;;;24.20;76.30;;;;;;5024358;28;20193;-74
2022/07/30 00:49:23;;;;;;;2.50;2.30;;;24.20;76.30;;;;;;5023956;28;20626;-74
2022/07/30 00:51:50;;;;;;;1.98;1.88;;;24.20;76.20;;;;;;5007223;28;20203;-75
2022/07/30 00:54:17;;;;;;;2.20;2.10;;;24.10;75.90;;;;;;5023030;28;20193;-74
2022/07/30 00:56:43;;;;;;;2.00;1.90;;;24.20;76.10;;;;;;5023192;28;20220;-74
2022/07/30 00:59:09;;;;;;;2.67;2.47;;;24.20;76.10;;;;;;5023930;28;20275;-75
2022/07/30 01:01:36;;;;;;;2.08;1.98;;;24.20;76.00;;;;;;5005912;28;20252;-74
2022/07/30 01:04:02;;;;;;;2.53;2.33;;;24.10;76.00;;;;;;5023525;28;20177;-74
2022/07/30 01:06:27;;;;;;;2.40;2.20;;;24.20;76.00;;;;;;5007993;28;20212;-74
2022/07/30 01:08:53;;;;;;;2.20;2.10;;;24.10;75.90;;;;;;5008045;28;20242;-74
2022/07/30 01:11:27;;;;;;;2.35;2.15;;;24.10;75.90;;;;;;5007489;28;20223;-74
2022/07/30 01:13:53;;;;;;;2.20;2.10;;;24.20;75.90;;;;;;5024073;28;20243;-75
2022/07/30 01:16:20;;;;;;;2.50;2.30;;;24.10;75.80;;;;;;5022794;28;20225;-74
2022/07/30 01:21:50;;;;;;;2.03;1.92;;;24.10;75.70;;;;;;4954576;28;20203;-74
2022/07/30 01:24:39;;;;;;;2.20;2.10;;;24.10;75.70;;;;;;5023928;28;20187;-74
2022/07/30 01:27:07;;;;;;;2.28;2.10;;;24.10;75.60;;;;;;5006053;28;20914;-74
2022/07/30 01:29:35;;;;;;;2.17;2.08;;;24.10;75.70;;;;;;4990259;28;20189;-74
2022/07/30 01:32:06;;;;;;;2.00;1.90;;;24.10;75.60;;;;;;4989655;28;20181;-75
2022/07/30 01:34:34;;;;;;;2.53;2.33;;;24.10;75.60;;;;;;5022481;28;20181;-74
2022/07/30 01:37:03;;;;;;;2.28;2.17;;;24.10;75.60;;;;;;5023077;28;20220;-74
2022/07/30 01:39:31;;;;;;;2.28;2.08;;;24.10;75.50;;;;;;4991512;28;20184;-74
2022/07/30 01:41:58;;;;;;;2.25;2.05;;;24.10;75.50;;;;;;5006825;28;20249;-75
2022/07/30 01:44:27;;;;;;;2.65;2.17;;;24.10;75.40;;;;;;5023882;28;20180;-75
2022/07/30 01:46:55;;;;;;;2.30;2.20;;;24.10;76.20;;;;;;5023438;28;20236;-74
2022/07/30 01:49:24;;;;;;;1.95;1.85;;;24.10;75.40;;;;;;5023726;28;20189;-74
2022/07/30 01:51:51;;;;;;;2.15;2.05;;;24.10;75.40;;;;;;5023207;28;20185;-74
2022/07/30 01:54:20;;;;;;;2.15;2.00;;;24.10;75.30;;;;;;5024352;28;20184;-74
2022/07/30 01:56:51;;;;;;;1.90;1.80;;;24.10;75.30;;;;;;5007767;28;20322;-75
2022/07/30 01:59:19;;;;;;;2.00;1.90;;;24.10;75.30;;;;;;5024383;28;20204;-74
2022/07/30 02:01:47;;;;;;;2.08;1.98;;;24.10;75.20;;;;;;5020146;28;20254;-74
2022/07/30 02:04:14;;;;;;;2.00;1.90;;;24.10;75.20;;;;;;5005317;28;20192;-74
2022/07/30 02:06:51;;;;;;;2.35;2.22;;;24.10;75.20;;;;;;5004672;28;20254;-74
2022/07/30 02:09:27;;;;;;;2.40;2.20;;;24.10;75.20;;;;;;5022040;28;20185;-74
2022/07/30 02:14:52;;;;;;;2.30;2.20;;;24.10;75.10;;;;;;5005092;28;20225;-74
2022/07/30 02:17:27;;;;;;;2.20;2.10;;;24.10;75.10;;;;;;5004551;28;20225;-74
2022/07/30 02:19:57;;;;;;;2.15;2.05;;;24.10;75.10;;;;;;4988637;28;20181;-75
2022/07/30 02:22:31;;;;;;;1.98;1.88;;;24.10;75.10;;;;;;5020906;28;20200;-74
2022/07/30 02:25:01;;;;;;;2.28;2.17;;;24.10;75.10;;;;;;5005019;28;20197;-74
2022/07/30 02:27:33;;;;;;;2.20;2.10;;;24.10;75.00;;;;;;4988212;28;20280;-74
2022/07/30 02:30:02;;;;;;;1.90;1.80;;;24.10;75.00;;;;;;5003688;28;20256;-74
2022/07/30 02:32:37;;;;;;;2.50;2.40;;;24.10;75.10;;;;;;4987528;28;20201;-74
2022/07/30 02:35:17;;;;;;;2.08;1.98;;;24.10;75.10;;;;;;5004509;28;20198;-74
2022/07/30 02:37:49;;;;;;;1.88;1.77;;;24.10;75.30;;;;;;5004808;28;20267;-74
2022/07/30 02:40:18;;;;;;;2.15;2.05;;;24.10;75.00;;;;;;5004933;28;20190;-74
2022/07/30 02:42:50;;;;;;;2.30;2.00;;;24.10;75.00;;;;;;5002873;28;20185;-75
2022/07/30 02:45:37;;;;;;;1.95;1.85;;;24.10;74.80;;;;;;5019163;28;20203;-73
2022/07/30 02:48:09;;;;;;;2.08;1.98;;;24.10;74.90;;;;;;5006967;28;20215;-75
2022/07/30 02:50:39;;;;;;;1.92;1.70;;;24.10;74.90;;;;;;5006931;28;20192;-74
2022/07/30 02:53:10;;;;;;;2.25;2.10;;;24.10;74.90;;;;;;5007687;28;20187;-75
2022/07/30 02:55:39;;;;;;;1.90;1.80;;;24.10;74.90;;;;;;5004183;28;20204;-75
2022/07/30 02:58:07;;;;;;;2.13;2.00;;;24.00;74.80;;;;;;4987899;28;20235;-75
2022/07/30 03:00:35;;;;;;;2.00;1.90;;;24.10;74.80;;;;;;4971817;28;20256;-75
2022/07/30 03:03:06;;;;;;;1.98;1.88;;;24.10;74.80;;;;;;4955397;28;20228;-75
2022/07/30 03:05:38;;;;;;;2.28;2.15;;;24.00;74.60;;;;;;4973767;28;20192;-74
2022/07/30 03:08:05;;;;;;;2.13;2.03;;;24.00;74.60;;;;;;4988922;28;20251;-74
2022/07/30 03:10:33;;;;;;;2.25;2.08;;;24.10;74.70;;;;;;4973575;28;20193;-74
2022/07/30 03:13:03;;;;;;;2.40;2.00;;;24.10;74.60;;;;;;4990528;28;20255;-74
2022/07/30 03:15:33;;;;;;;2.10;2.00;;;24.10;74.60;;;;;;4974731;28;20193;-74
2022/07/30 03:18:01;;;;;;;2.53;2.10;;;24.10;74.60;;;;;;5004271;28;20225;-74
2022/07/30 03:20:33;;;;;;;1.88;1.77;;;24.00;74.60;;;;;;5017101;28;20177;-74
2022/07/30 03:23:01;;;;;;;1.88;1.77;;;24.00;74.50;;;;;;5024265;28;20256;-75
2022/07/30 03:25:30;;;;;;;1.83;1.73;;;24.00;74.50;;;;;;4991390;28;20181;-73
2022/07/30 03:28:02;;;;;;;2.00;1.90;;;24.10;74.40;;;;;;5007611;28;20224;-74
2022/07/30 03:30:30;;;;;;;2.00;1.90;;;24.00;74.30;;;;;;5023994;28;20185;-74
2022/07/30 03:32:57;;;;;;;2.00;1.90;;;24.00;74.40;;;;;;5006330;28;20197;-74
2022/07/30 03:35:23;;;;;;;2.10;2.00;;;24.00;74.30;;;;;;5019903;28;20189;-74
2022/07/30 03:37:52;;;;;;;2.20;2.10;;;24.00;74.30;;;;;;5010730;28;20225;-74
2022/07/30 03:40:19;;;;;;;2.35;2.20;;;24.00;74.30;;;;;;4984942;28;20183;-74
2022/07/30 03:42:46;;;;;;;2.28;2.17;;;24.00;74.20;;;;;;4986415;28;20184;-74
2022/07/30 03:45:17;;;;;;;1.80;1.70;;;24.00;74.30;;;;;;5003956;28;20177;-74
2022/07/30 03:47:45;;;;;;;2.00;1.90;;;24.00;74.30;;;;;;5020552;28;20280;-74
2022/07/30 03:50:13;;;;;;;1.98;1.88;;;24.00;74.30;;;;;;5021142;28;20199;-74
2022/07/30 03:52:41;;;;;;;2.20;2.10;;;24.00;74.20;;;;;;5020191;28;20197;-74
2022/07/30 03:55:12;;;;;;;1.80;1.70;;;24.00;74.20;;;;;;5004753;28;20221;-74
2022/07/30 03:57:47;;;;;;;2.50;2.15;;;24.00;74.20;;;;;;5002730;28;20232;-74
2022/07/30 04:00:16;;;;;;;2.20;2.10;;;24.00;74.30;;;;;;4988709;28;20253;-74
2022/07/30 04:02:49;;;;;;;1.83;1.73;;;24.00;74.10;;;;;;4989910;28;20181;-74
2022/07/30 04:05:18;;;;;;;2.00;1.90;;;24.00;74.10;;;;;;5005655;28;20197;-74
2022/07/30 04:07:45;;;;;;;2.08;1.98;;;24.00;74.10;;;;;;4989071;28;20273;-74
2022/07/30 04:10:15;;;;;;;2.00;1.90;;;24.00;74.00;;;;;;5004472;28;20190;-74
2022/07/30 04:13:01;;;;;;;1.90;1.80;;;24.00;74.10;;;;;;4990943;28;20194;-75
2022/07/30 04:15:40;;;;;;;2.22;2.08;;;24.00;74.10;;;;;;5004917;28;20212;-74
2022/07/30 04:18:10;;;;;;;2.10;2.00;;;24.00;74.00;;;;;;4988672;28;20304;-74
2022/07/30 04:20:43;;;;;;;2.15;2.05;;;24.00;74.10;;;;;;5004549;28;20194;-75
2022/07/30 04:23:10;;;;;;;2.08;1.98;;;24.00;74.00;;;;;;5004822;28;20182;-74
2022/07/30 04:25:39;;;;;;;2.40;2.30;;;24.00;74.00;;;;;;5004424;28;20221;-74
2022/07/30 04:28:06;;;;;;;2.10;2.00;;;24.00;73.90;;;;;;5004356;28;20244;-75
2022/07/30 04:30:33;;;;;;;2.10;1.98;;;24.00;74.00;;;;;;4987588;28;20189;-75
2022/07/30 04:33:01;;;;;;;2.30;2.20;;;24.00;73.90;;;;;;5003521;28;20194;-75
2022/07/30 04:35:53;;;;;;;2.22;2.13;;;24.00;73.90;;;;;;5000998;28;20194;-74
2022/07/30 04:38:39;;;;;;;1.80;1.70;;;24.00;73.90;;;;;;5002487;28;20205;-75
2022/07/30 04:41:05;;;;;;;2.67;2.22;;;23.90;73.70;;;;;;4987696;28;20190;-74
2022/07/30 04:44:00;;;;;;;2.17;2.08;;;24.00;73.80;;;;;;5001238;28;20185;-74
2022/07/30 04:46:26;;;;;;;1.92;1.83;;;24.00;73.70;;;;;;4988426;28;20209;-74
2022/07/30 04:48:52;;;;;;;1.88;1.77;;;23.90;74.40;;;;;;5004018;28;20232;-74
2022/07/30 04:51:30;;;;;;;2.35;2.15;;;24.00;73.60;;;;;;4987462;28;20185;-74
2022/07/30 04:54:00;;;;;;;1.80;1.70;;;23.90;73.60;;;;;;5005112;28;20191;-75
2022/07/30 04:56:30;;;;;;;1.95;1.85;;;23.90;73.50;;;;;;5024305;28;20244;-74
2022/07/30 04:58:58;;;;;;;1.83;1.73;;;24.00;73.70;;;;;;5023952;28;20796;-74
2022/07/30 05:01:34;;;;;;;2.10;2.00;;;23.90;73.50;;;;;;5005546;28;20208;-74
2022/07/30 05:04:01;;;;;;;2.17;2.08;;;24.00;73.70;;;;;;5007006;28;20180;-74
2022/07/30 05:06:29;;;;;;;1.90;1.80;;;24.00;73.60;;;;;;5023773;28;20209;-75
2022/07/30 05:08:57;;;;;;;2.10;2.00;;;24.00;73.60;;;;;;5023254;28;20185;-75
2022/07/30 05:11:23;;;;;;;2.15;2.05;;;23.90;73.50;;;;;;5022914;28;20198;-75
2022/07/30 05:13:49;;;;;;;2.00;1.90;;;24.00;73.50;;;;;;5023342;28;20279;-74
2022/07/30 05:16:19;;;;;;;1.90;1.80;;;23.90;73.50;;;;;;5022726;28;20766;-75
2022/07/30 05:18:46;;;;;;;2.00;1.90;;;23.90;73.40;;;;;;5023036;28;20649;-74
2022/07/30 05:21:12;;;;;;;2.10;2.00;;;23.90;73.40;;;;;;5023560;28;20196;-74
2022/07/30 05:23:43;;;;;;;2.30;2.20;;;23.90;73.40;;;;;;5023676;28;20177;-74
2022/07/30 05:26:21;;;;;;;2.17;1.98;;;23.90;73.30;;;;;;4992853;28;20204;-74
2022/07/30 05:28:49;;;;;;;2.30;2.00;;;23.90;73.40;;;;;;5024312;28;20196;-74
2022/07/30 05:31:17;;;;;;;2.00;1.90;;;24.00;73.50;;;;;;5023634;28;20216;-74
2022/07/30 05:33:51;;;;;;;2.08;1.98;;;24.00;73.50;;;;;;4992580;28;20181;-74
2022/07/30 05:36:19;;;;;;;1.90;1.80;;;23.90;73.20;;;;;;5007744;28;20217;-73
2022/07/30 05:38:46;;;;;;;1.67;1.58;;;23.90;73.30;;;;;;5024020;28;20244;-74
2022/07/30 05:41:27;;;;;;;2.33;2.17;;;23.90;73.20;;;;;;5008587;28;20196;-74
2022/07/30 05:44:13;;;;;;;2.00;1.88;;;23.90;73.20;;;;;;5010604;28;20188;-74
2022/07/30 05:46:38;;;;;;;2.50;2.30;;;23.90;73.30;;;;;;5008077;28;20204;-74
2022/07/30 05:49:05;;;;;;;2.10;2.00;;;23.90;73.30;;;;;;5023803;28;20188;-74
2022/07/30 05:51:31;;;;;;;2.17;2.00;;;23.90;73.30;;;;;;5006301;28;20212;-74
2022/07/30 05:53:57;;;;;;;2.00;1.90;;;23.90;73.30;;;;;;5007838;28;20188;-74
2022/07/30 05:56:43;;;;;;;2.08;1.98;;;23.90;73.20;;;;;;5011279;28;20231;-74
2022/07/30 05:59:28;;;;;;;2.08;1.98;;;24.00;73.30;;;;;;4993913;28;20177;-74
2022/07/30 06:02:15;;;;;;;1.80;1.70;;;23.90;73.20;;;;;;5006500;28;20185;-75
2022/07/30 06:04:56;;;;;;;2.00;1.90;;;23.90;73.20;;;;;;5007781;28;20181;-74
2022/07/30 06:07:23;;;;;;;1.90;1.80;;;24.00;73.30;;;;;;5007560;28;20210;-74
2022/07/30 06:09:51;;;;;;;2.30;2.20;;;23.90;73.20;;;;;;5007020;28;20184;-75
2022/07/30 06:12:18;;;;;;;2.22;2.13;;;24.00;73.30;;;;;;5005945;28;20196;-74
2022/07/30 06:14:44;;;;;;;2.47;2.03;;;23.90;73.20;;;;;;5005777;28;20189;-75
2022/07/30 06:17:15;;;;;;;2.03;1.92;;;23.90;73.20;;;;;;5005662;28;20355;-74
2022/07/30 06:20:00;;;;;;;2.10;2.00;;;23.90;73.20;;;;;;5005580;28;20179;-75
2022/07/30 06:22:28;;;;;;;2.03;1.90;;;23.90;73.00;;;;;;5005822;28;20252;-73
2022/07/30 06:24:57;;;;;;;2.10;2.00;;;23.90;73.00;;;;;;5002426;28;20257;-74
2022/07/30 06:27:26;;;;;;;2.08;1.98;;;23.90;73.10;;;;;;5018500;28;20220;-74
2022/07/30 06:29:52;;;;;;;2.25;2.05;;;24.00;73.30;;;;;;5024638;28;20218;-75
2022/07/30 06:32:19;;;;;;;1.90;1.80;;;24.00;73.30;;;;;;5019203;28;20241;-74
2022/07/30 06:34:45;;;;;;;1.80;1.70;;;23.90;72.70;;;;;;5013137;28;20185;-74
2022/07/30 06:37:12;;;;;;;1.80;1.70;;;23.80;72.10;;;;;;5012645;28;20217;-74
2022/07/30 06:39:40;;;;;;;1.98;1.85;;;23.80;72.20;;;;;;5001153;28;20212;-75
2022/07/30 06:42:32;;;;;;;2.20;2.10;;;23.80;72.00;;;;;;4992732;28;20217;-75
2022/07/30 06:45:21;;;;;;;2.00;1.90;;;23.80;72.50;;;;;;5004256;28;20221;-74
2022/07/30 06:48:07;;;;;;;2.80;2.60;;;23.80;69.80;;;;;;5000474;28;20213;-74
2022/07/30 06:50:36;;;;;;;2.80;2.60;;;23.70;70.60;;;;;;5000779;28;20186;-75
2022/07/30 06:53:01;;;;;;;2.40;2.20;;;23.70;71.10;;;;;;5003197;28;20252;-75
2022/07/30 06:55:43;;;;;;;2.97;2.78;;;23.70;70.70;;;;;;4982029;28;20284;-75
2022/07/30 06:58:08;;;;;;;2.70;2.50;;;23.80;71.00;;;;;;4986220;28;20280;-74
2022/07/30 07:01:07;;;;;;;3.13;2.92;;;23.80;71.00;;;;;;4986720;28;20209;-74
2022/07/30 07:03:33;;;;;;;3.85;3.15;;;23.80;69.90;;;;;;5001038;28;20216;-74
2022/07/30 07:05:59;;;;;;;3.03;2.72;;;23.80;70.80;;;;;;5004500;28;20253;-74
2022/07/30 07:08:25;;;;;;;3.20;3.00;;;23.80;69.20;;;;;;5002437;28;20268;-74
2022/07/30 07:10:54;;;;;;;3.53;3.22;;;23.80;70.00;;;;;;4983756;28;20181;-74
2022/07/30 07:13:28;;;;;;;3.97;3.58;;;23.80;70.30;;;;;;4985706;28;20240;-74
2022/07/30 07:15:56;;;;;;;4.03;3.72;;;23.90;70.00;;;;;;4986514;28;20342;-74
2022/07/30 07:18:23;;;;;;;3.50;3.20;;;23.90;70.00;;;;;;4999590;28;20193;-75
2022/07/30 07:20:53;;;;;;;4.65;4.22;;;23.90;69.90;;;;;;4984237;28;20194;-74
2022/07/30 07:23:19;;;;;;;3.70;3.40;;;23.90;69.10;;;;;;4992358;28;20692;-75
2022/07/30 07:25:46;;;;;;;5.75;3.95;;;23.90;69.10;;;;;;5007707;28;20188;-74
2022/07/30 07:28:12;;;;;;;4.47;3.80;;;23.90;68.80;;;;;;5025811;28;20185;-75
2022/07/30 07:30:40;;;;;;;3.28;2.97;;;24.00;68.70;;;;;;5021838;28;20181;-75
2022/07/30 07:33:07;;;;;;;4.30;3.60;;;24.00;68.90;;;;;;5019850;28;20181;-74
2022/07/30 07:35:33;;;;;;;4.80;4.10;;;24.00;68.30;;;;;;5020066;28;20197;-74
2022/07/30 07:37:59;;;;;;;4.45;3.40;;;23.90;68.10;;;;;;5016321;28;20311;-74
2022/07/30 07:40:26;;;;;;;4.05;3.65;;;23.90;68.40;;;;;;5015389;28;20169;-75
2022/07/30 07:42:52;;;;;;;4.03;3.63;;;24.00;68.30;;;;;;5018177;28;20185;-75
2022/07/30 07:45:18;;;;;;;3.85;3.55;;;24.00;67.90;;;;;;5002466;28;20189;-75
2022/07/30 07:47:56;;;;;;;4.70;3.60;;;24.00;67.90;;;;;;5021295;28;20236;-74
2022/07/30 07:50:41;;;;;;;4.28;3.60;;;24.00;67.70;;;;;;5008812;28;20250;-75
2022/07/30 07:53:13;;;;;;;6.20;3.53;;;24.00;67.60;;;;;;5020126;28;20193;-74
2022/07/30 07:55:39;;;;;;;4.63;3.75;;;24.00;68.80;;;;;;5004164;28;20246;-74
2022/07/30 07:58:05;;;;;;;4.13;3.53;;;24.00;67.30;;;;;;5004622;28;20279;-75
2022/07/30 08:00:33;;;;;;;4.00;3.67;;;24.10;67.80;;;;;;5020269;28;20185;-75
2022/07/30 08:02:59;;;;;;;3.90;3.35;;;24.10;67.00;;;;;;5020893;28;20181;-75
2022/07/30 08:05:25;;;;;;;7.85;3.72;;;24.10;66.90;;;;;;5002741;28;20195;-74
2022/07/30 08:08:12;;;;;;;5.05;3.67;;;24.10;66.40;;;;;;5021541;28;20195;-74
2022/07/30 08:10:58;;;;;;;4.25;3.58;;;24.10;66.80;;;;;;5008438;28;20219;-74
2022/07/30 08:13:47;;;;;;;3.47;3.17;;;24.10;66.70;;;;;;5004565;28;20196;-74
2022/07/30 08:16:32;;;;;;;3.50;3.20;;;24.10;66.30;;;;;;5018096;28;20359;-74
2022/07/30 08:19:10;;;;;;;3.78;3.30;;;24.10;66.60;;;;;;5017626;28;20195;-74
2022/07/30 08:21:39;;;;;;;3.60;3.20;;;24.10;66.20;;;;;;5003064;28;20176;-74
2022/07/30 08:24:06;;;;;;;4.68;3.65;;;24.10;65.30;;;;;;5021170;28;20257;-74
2022/07/30 08:26:32;;;;;;;3.55;3.22;;;24.10;65.70;;;;;;5003613;28;20232;-75
2022/07/30 08:28:58;;;;;;;4.95;3.15;;;24.10;65.30;;;;;;5017406;28;20192;-74
2022/07/30 08:31:24;;;;;;;4.95;3.40;;;24.10;64.90;;;;;;5018456;28;20188;-74
2022/07/30 08:33:50;;;;;;;3.75;3.45;;;24.10;64.90;;;;;;5019252;28;20185;-75
2022/07/30 08:36:16;;;;;;;3.90;2.97;;;24.20;64.90;;;;;;5015224;28;20685;-74
2022/07/30 08:38:41;;;;;;;5.63;3.50;;;24.10;64.40;;;;;;4984943;28;20186;-74
2022/07/30 08:41:08;;;;;;;4.18;3.22;;;24.20;64.70;;;;;;4985389;28;20178;-73
2022/07/30 08:43:35;;;;;;;7.28;3.20;;;24.20;63.90;;;;;;4984100;28;20252;-74
2022/07/30 08:46:06;;;;;;;3.17;2.88;;;24.20;63.70;;;;;;5001117;28;20182;-73
2022/07/30 08:48:47;;;;;;;4.97;3.42;;;24.20;63.90;;;;;;5001727;28;20182;-73
2022/07/30 08:51:16;;;;;;;6.03;3.28;;;24.20;63.80;;;;;;5018880;28;20248;-73
2022/07/30 08:53:43;;;;;;;3.20;2.90;;;24.30;63.20;;;;;;4985131;28;20185;-73
2022/07/30 08:56:09;;;;;;;5.13;3.22;;;24.20;62.80;;;;;;4996640;28;20205;-75
2022/07/30 08:58:35;;;;;;;3.53;3.00;;;24.30;62.70;;;;;;4998120;28;20178;-74
2022/07/30 09:01:03;;;;;;;3.00;2.80;;;24.20;62.00;;;;;;5001748;28;20185;-74
2022/07/30 09:03:30;;;;;;;3.95;3.47;;;24.30;62.40;;;;;;5017201;28;20181;-75
2022/07/30 09:06:04;;;;;;;3.38;3.08;;;24.30;62.60;;;;;;5017217;28;20191;-75
2022/07/30 09:08:30;;;;;;;4.35;2.80;;;24.30;62.40;;;;;;5017702;28;20267;-75
2022/07/30 09:10:58;;;;;;;5.00;2.70;;;24.30;62.40;;;;;;5016260;28;20181;-74
2022/07/30 09:13:33;;;;;;;3.72;3.03;;;24.30;62.20;;;;;;5016696;28;20189;-75
2022/07/30 09:16:02;;;;;;;4.88;3.45;;;24.30;62.00;;;;;;5018250;28;20192;-74
2022/07/30 09:18:35;;;;;;;4.57;2.92;;;24.30;62.30;;;;;;5018402;28;20275;-75
2022/07/30 09:21:27;;;;;;;4.65;3.20;;;24.30;62.10;;;;;;5001574;28;20184;-75
2022/07/30 09:24:12;;;;;;;5.32;3.33;;;24.30;62.60;;;;;;5015967;28;20185;-75
2022/07/30 09:27:08;;;;;;;4.22;2.67;;;24.30;62.50;;;;;;4993680;28;20216;-75
2022/07/30 09:29:58;;;;;;;4.28;3.05;;;24.40;62.80;;;;;;5016788;28;20215;-75
2022/07/30 09:32:51;;;;;;;6.53;3.38;;;24.40;62.70;;;;;;5033096;28;20227;-74
2022/07/30 09:35:35;;;;;;;9.93;3.30;;;24.40;62.70;;;;;;5019324;28;20243;-75
2022/07/30 09:38:11;;;;;;;3.42;3.13;;;24.40;62.80;;;;;;5012525;28;20311;-77
2022/07/30 09:40:58;;;;;;;4.47;3.35;;;24.40;62.40;;;;;;5010894;28;20185;-76
2022/07/30 09:43:30;;;;;;;5.10;3.58;;;24.10;62.70;;;;;;5010936;28;20177;-76
2022/07/30 09:46:12;;;;;;;5.05;3.20;;;24.20;63.50;;;;;;5012132;28;20201;-76
2022/07/30 09:48:38;;;;;;;3.88;3.30;;;24.20;63.40;;;;;;5011359;28;20204;-77
2022/07/30 09:51:07;;;;;;;4.78;3.13;;;24.30;63.30;;;;;;5011486;28;20185;-76
2022/07/30 09:53:52;;;;;;;7.28;3.08;;;24.40;63.30;;;;;;5012047;28;20189;-76
2022/07/30 09:56:31;;;;;;;6.35;3.15;;;24.40;63.20;;;;;;5012120;28;20217;-77
2022/07/30 09:59:01;;;;;;;6.03;3.03;;;24.50;63.20;;;;;;4996426;28;20185;-76
2022/07/30 10:01:27;;;;;;;3.30;3.00;;;24.40;63.10;;;;;;5008709;28;20234;-76
2022/07/30 10:04:25;;;;;;;3.05;2.85;;;24.50;63.20;;;;;;5005365;28;20192;-76
2022/07/30 10:07:03;;;;;;;4.38;3.28;;;24.50;63.20;;;;;;5012711;28;20259;-76
2022/07/30 10:09:47;;;;;;;3.60;3.00;;;24.50;63.30;;;;;;5013145;28;20188;-76
2022/07/30 10:12:18;;;;;;;6.78;3.20;;;24.50;63.30;;;;;;5012198;28;20194;-76
2022/07/30 10:14:54;;;;;;;2.90;2.70;;;24.50;63.30;;;;;;5011715;28;20181;-76
2022/07/30 10:17:21;;;;;;;3.10;2.80;;;24.50;63.40;;;;;;5013395;28;20221;-76
2022/07/30 10:20:10;;;;;;;6.55;2.90;;;24.50;63.40;;;;;;5015161;28;20207;-76
2022/07/30 10:22:58;;;;;;;2.97;2.78;;;24.50;63.60;;;;;;5007851;28;20192;-76
2022/07/30 10:25:48;;;;;;;3.72;2.80;;;24.50;63.50;;;;;;5010806;28;20226;-76
2022/07/30 10:28:35;;;;;;;3.00;2.78;;;24.50;63.40;;;;;;5030429;28;20243;-76
2022/07/30 10:31:04;;;;;;;3.13;2.92;;;24.50;63.30;;;;;;5031310;28;20188;-75
2022/07/30 10:33:30;;;;;;;3.97;2.65;;;24.50;63.50;;;;;;5022313;28;20196;-76
2022/07/30 10:35:59;;;;;;;4.15;2.70;;;24.50;63.60;;;;;;5032817;28;20187;-77
2022/07/30 10:38:33;;;;;;;3.45;2.60;;;24.50;63.80;;;;;;5033592;28;20219;-76
2022/07/30 10:41:34;;;;;;;3.03;2.50;;;24.60;63.90;;;;;;5032120;28;20231;-76
2022/07/30 10:44:42;;;;;;;3.90;2.53;;;24.60;63.90;;;;;;4994918;28;20196;-77
2022/07/30 10:47:15;;;;;;;4.78;2.80;;;24.60;63.90;;;;;;4965955;28;20220;-77
2022/07/30 10:50:01;;;;;;;5.63;2.88;;;24.60;63.80;;;;;;4993093;28;20205;-77
2022/07/30 10:52:44;;;;;;;4.28;2.78;;;24.50;63.80;;;;;;5005321;28;20185;-75
2022/07/30 10:55:15;;;;;;;4.38;2.70;;;24.60;64.30;;;;;;5011972;28;20280;-75
2022/07/30 10:58:04;;;;;;;3.17;2.65;;;24.50;64.20;;;;;;5001954;28;20231;-74
2022/07/30 11:00:42;;;;;;;3.38;2.90;;;24.50;64.60;;;;;;4996006;28;20274;-75
2022/07/30 11:03:24;;;;;;;2.72;2.53;;;24.40;64.80;;;;;;5013838;28;20253;-75
2022/07/30 11:06:14;;;;;;;2.83;2.30;;;24.40;64.70;;;;;;5020190;28;20180;-74
2022/07/30 11:08:44;;;;;;;2.70;2.50;;;24.40;64.60;;;;;;5011970;28;20192;-74
2022/07/30 11:11:35;;;;;;;3.40;2.50;;;24.40;65.00;;;;;;5001681;28;20192;-74
2022/07/30 11:14:01;;;;;;;4.75;2.42;;;24.30;65.00;;;;;;4979662;28;20200;-74
2022/07/30 11:16:33;;;;;;;4.18;2.50;;;24.30;64.90;;;;;;4998507;28;20224;-74
2022/07/30 11:19:15;;;;;;;3.25;2.17;;;24.30;64.80;;;;;;5013318;28;20208;-74
2022/07/30 11:21:42;;;;;;;5.40;2.65;;;24.40;65.10;;;;;;5015142;28;20188;-75
2022/07/30 11:24:42;;;;;;;2.90;2.22;;;24.40;65.30;;;;;;5000339;28;20193;-74
2022/07/30 11:27:08;;;;;;;4.22;2.42;;;24.40;64.90;;;;;;5012765;28;20359;-71
2022/07/30 11:29:39;;;;;;;4.03;2.45;;;24.40;65.30;;;;;;4978962;28;20674;-71
2022/07/30 11:32:26;;;;;;;2.65;2.45;;;24.30;65.40;;;;;;5011244;28;20184;-71
2022/07/30 11:35:20;;;;;;;2.38;2.17;;;24.40;65.20;;;;;;4995283;28;20199;-71
2022/07/30 11:38:07;;;;;;;2.60;2.20;;;24.40;65.20;;;;;;5011657;28;20244;-71
2022/07/30 11:40:40;;;;;;;3.72;2.40;;;24.40;65.00;;;;;;4995266;28;20566;-71
2022/07/30 11:43:31;;;;;;;2.53;2.30;;;24.40;64.90;;;;;;4994957;28;20544;-71
2022/07/30 11:46:22;;;;;;;2.50;2.30;;;24.30;64.90;;;;;;5011123;28;20187;-71
2022/07/30 11:49:07;;;;;;;3.50;1.90;;;24.40;65.00;;;;;;5011595;28;20169;-71
2022/07/30 11:51:48;;;;;;;2.35;2.08;;;24.30;64.80;;;;;;5011049;28;20169;-71
2022/07/30 11:54:14;;;;;;;2.90;2.30;;;24.30;64.90;;;;;;4995144;28;20571;-71
2022/07/30 11:56:58;;;;;;;3.47;2.10;;;24.40;64.70;;;;;;5019486;28;20232;-71
2022/07/30 11:59:24;;;;;;;2.38;2.15;;;24.30;64.60;;;;;;5031241;28;20188;-71
2022/07/30 12:02:00;;;;;;;3.15;2.20;;;24.40;64.40;;;;;;5013644;28;20192;-71
2022/07/30 12:04:26;;;;;;;2.85;2.30;;;24.30;64.60;;;;;;4998306;28;20183;-71
2022/07/30 12:06:52;;;;;;;2.40;2.20;;;24.40;64.60;;;;;;5030899;28;20206;-71
2022/07/30 12:09:27;;;;;;;2.60;2.13;;;24.40;64.70;;;;;;5030956;28;20244;-71
2022/07/30 12:11:54;;;;;;;4.10;2.45;;;24.30;64.60;;;;;;5030168;28;20219;-71
2022/07/30 12:14:20;;;;;;;2.17;2.03;;;24.40;65.30;;;;;;5030631;28;20200;-71
2022/07/30 12:16:52;;;;;;;2.15;2.05;;;24.40;64.30;;;;;;5013742;28;20220;-71
2022/07/30 12:19:18;;;;;;;3.10;2.15;;;24.40;64.20;;;;;;5013710;28;20190;-71
2022/07/30 12:21:44;;;;;;;2.30;2.10;;;24.40;64.00;;;;;;5013498;28;20180;-71
2022/07/30 12:24:11;;;;;;;2.13;1.83;;;24.40;64.50;;;;;;5030586;28;20196;-71
2022/07/30 12:26:37;;;;;;;2.25;2.05;;;24.40;64.60;;;;;;5002756;28;20222;-71
2022/07/30 12:29:10;;;;;;;2.30;2.10;;;24.30;64.00;;;;;;4994506;28;20272;-71
2022/07/30 12:31:38;;;;;;;3.70;2.47;;;24.40;64.00;;;;;;5010224;28;20629;-71
2022/07/30 12:34:17;;;;;;;2.70;2.33;;;24.30;64.20;;;;;;4994229;28;20211;-71
2022/07/30 12:36:43;;;;;;;4.05;2.28;;;24.40;64.30;;;;;;4994037;28;20228;-71
2022/07/30 12:39:20;;;;;;;2.15;2.00;;;24.40;64.20;;;;;;4978093;28;20181;-71
2022/07/30 12:41:49;;;;;;;1.98;1.88;;;24.30;64.90;;;;;;5009926;28;20204;-71
2022/07/30 12:44:39;;;;;;;2.00;1.90;;;24.40;63.80;;;;;;4994168;28;20185;-71
2022/07/30 12:47:24;;;;;;;2.10;1.90;;;24.40;64.10;;;;;;4977247;28;20619;-71
2022/07/30 12:49:52;;;;;;;1.90;1.80;;;24.40;64.10;;;;;;4993279;28;20199;-70
2022/07/30 12:52:34;;;;;;;2.90;1.80;;;24.40;64.00;;;;;;4993125;28;20666;-73
2022/07/30 12:55:07;;;;;;;2.30;1.83;;;24.40;64.20;;;;;;4996853;28;20192;-70
2022/07/30 12:57:52;;;;;;;1.88;1.77;;;24.30;63.70;;;;;;5017806;28;20247;-70
2022/07/30 13:00:18;;;;;;;2.30;2.20;;;24.30;64.10;;;;;;4993760;28;20189;-69
2022/07/30 13:02:44;;;;;;;1.88;1.77;;;24.30;64.30;;;;;;5014513;28;20180;-74
2022/07/30 13:05:10;;;;;;;2.30;1.73;;;24.40;64.20;;;;;;4984318;28;20196;-74
2022/07/30 13:07:56;;;;;;;2.15;1.92;;;24.40;63.80;;;;;;4980962;28;20216;-75
2022/07/30 13:10:22;;;;;;;1.98;1.88;;;24.30;64.20;;;;;;4988138;28;20192;-74
2022/07/30 13:12:48;;;;;;;2.97;1.88;;;24.40;64.00;;;;;;5015585;28;20184;-74
2022/07/30 13:15:25;;;;;;;2.20;1.85;;;24.40;64.00;;;;;;5011723;28;20191;-75
2022/07/30 13:17:54;;;;;;;2.10;1.90;;;24.30;63.70;;;;;;5007564;28;20227;-75
2022/07/30 13:20:20;;;;;;;2.95;1.88;;;24.40;63.60;;;;;;5032955;28;20187;-75